createdAt,value
2019-03-12T00:01:55.398Z,4.27
2019-03-12T00:08:01.159Z,4.19
2019-03-12T00:14:06.905Z,4.13
2019-03-12T00:20:12.716Z,4.09
2019-03-12T00:26:18.423Z,4.07
2019-03-12T00:32:24.510Z,4.05
2019-03-12T00:38:38.151Z,4.07
2019-03-12T00:44:44.107Z,4.12
2019-03-12T00:50:50.240Z,4.13
2019-03-12T00:56:56.363Z,4.10
2019-03-12T01:03:02.090Z,3.96
2019-03-12T01:09:10.035Z,3.89
2019-03-12T01:15:16.354Z,3.84
2019-03-12T01:21:22.165Z,3.77
2019-03-12T01:27:27.944Z,3.67
2019-03-12T01:33:34.017Z,3.58
2019-03-12T01:39:39.768Z,3.46
2019-03-12T01:45:45.657Z,3.43
2019-03-12T01:51:51.669Z,3.49
2019-03-12T01:57:57.685Z,3.58
2019-03-12T02:04:09.304Z,3.71
2019-03-12T02:10:15.349Z,3.65
2019-03-12T02:16:21.065Z,3.66
2019-03-12T02:22:26.806Z,3.69
2019-03-12T02:28:32.560Z,3.71
2019-03-12T02:34:38.559Z,3.73
2019-03-12T02:40:44.649Z,3.75
2019-03-12T02:46:50.712Z,3.64
2019-03-12T02:52:56.605Z,3.53
2019-03-12T02:59:02.453Z,3.45
2019-03-12T03:05:08.508Z,3.42
2019-03-12T03:11:14.323Z,3.41
2019-03-12T03:17:20.017Z,3.40
2019-03-12T03:23:25.987Z,3.35
2019-03-12T03:29:31.892Z,3.29
2019-03-12T03:35:37.694Z,3.28
2019-03-12T03:41:43.647Z,3.25
2019-03-12T03:47:49.694Z,3.17
2019-03-12T03:53:55.487Z,3.21
2019-03-12T04:00:03.370Z,3.26
2019-03-12T04:06:10.332Z,3.32
2019-03-12T04:12:16.215Z,3.37
2019-03-12T04:18:22.142Z,3.41
2019-03-12T04:24:28.093Z,3.46
2019-03-12T04:30:33.791Z,3.53
2019-03-12T04:36:39.523Z,3.62
2019-03-12T04:42:45.292Z,3.64
2019-03-12T04:48:51.246Z,3.71
2019-03-12T04:54:57.194Z,3.68
2019-03-12T05:01:03.028Z,3.73
2019-03-12T05:07:08.715Z,3.77
2019-03-12T05:13:14.880Z,3.83
2019-03-12T05:19:20.985Z,3.90
2019-03-12T05:25:27.026Z,4.04
2019-03-12T05:31:33.018Z,4.11
2019-03-12T05:37:38.941Z,4.21
2019-03-12T05:43:44.951Z,4.34
2019-03-12T05:49:51.148Z,4.38
2019-03-12T05:55:57.613Z,4.42
2019-03-12T06:02:03.362Z,4.45
2019-03-12T06:08:09.209Z,4.47
2019-03-12T06:14:15.169Z,4.52
2019-03-12T06:20:21.015Z,4.57
2019-03-12T06:26:26.948Z,4.61
2019-03-12T06:32:48.290Z,4.71
2019-03-12T06:39:07.487Z,4.80
2019-03-12T06:45:30.968Z,4.88
2019-03-12T06:51:46.683Z,5.02
2019-03-12T06:58:24.272Z,5.11
2019-03-12T07:04:51.853Z,5.19
2019-03-12T07:11:22.422Z,5.31
2019-03-12T07:17:47.445Z,5.39
2019-03-12T07:24:13.165Z,5.48
2019-03-12T07:30:34.703Z,5.59
2019-03-12T07:36:59.757Z,5.75
2019-03-12T07:43:39.888Z,5.80
2019-03-12T07:50:07.321Z,5.86
2019-03-12T07:56:50.273Z,5.98
2019-03-12T08:03:14.902Z,6.13
2019-03-12T08:09:38.415Z,6.24
2019-03-12T08:16:06.651Z,6.38
2019-03-12T08:22:23.212Z,6.55
2019-03-12T08:28:38.188Z,6.79
2019-03-12T08:34:51.483Z,7.01
2019-03-12T08:41:34.389Z,7.25
2019-03-12T08:48:01.534Z,7.45
2019-03-12T08:54:14.175Z,7.54
2019-03-12T09:00:37.780Z,7.66
2019-03-12T09:07:05.772Z,7.85
2019-03-12T09:13:40.318Z,8.01
2019-03-12T09:20:20.422Z,8.14
2019-03-12T09:26:32.424Z,8.41
2019-03-12T09:32:49.159Z,8.62
2019-03-12T09:39:08.427Z,8.84
2019-03-12T09:45:41.126Z,9.03
2019-03-12T09:52:00.884Z,9.15
2019-03-12T09:58:24.288Z,9.10
2019-03-12T10:04:53.851Z,9.00
2019-03-12T10:11:16.815Z,9.02
2019-03-12T10:17:50.224Z,9.03
2019-03-12T10:24:11.984Z,9.11
2019-03-12T10:30:39.848Z,9.30
2019-03-12T10:37:12.134Z,9.49
2019-03-12T10:43:15.093Z,9.61
2019-03-12T10:49:20.899Z,9.74
2019-03-12T10:55:26.983Z,9.94
2019-03-12T11:01:32.767Z,10.11
2019-03-12T11:07:38.740Z,10.19
2019-03-12T11:13:44.841Z,10.35
2019-03-12T11:19:50.642Z,10.50
2019-03-12T11:25:56.414Z,10.54
2019-03-12T11:32:02.318Z,10.50
2019-03-12T11:38:08.029Z,10.56
2019-03-12T11:44:14.123Z,10.64
2019-03-12T11:50:21.339Z,10.65
2019-03-12T11:56:29.289Z,10.86
2019-03-12T12:02:35.101Z,10.94
2019-03-12T12:08:40.984Z,10.98
2019-03-12T12:14:46.868Z,11.12
2019-03-12T12:20:52.913Z,11.12
2019-03-12T12:26:58.882Z,11.38
2019-03-12T12:33:04.917Z,11.34
2019-03-12T12:39:10.864Z,11.29
2019-03-12T12:45:20.709Z,11.34
2019-03-12T12:51:26.855Z,11.42
2019-03-12T12:57:32.927Z,11.55
2019-03-12T13:03:38.706Z,11.71
2019-03-12T13:09:44.708Z,11.65
2019-03-12T13:15:50.780Z,11.76
2019-03-12T13:21:56.603Z,11.70
2019-03-12T13:28:02.396Z,11.76
2019-03-12T13:34:08.306Z,11.81
2019-03-12T13:40:16.570Z,11.96
2019-03-12T13:46:22.752Z,12.11
2019-03-12T13:52:28.889Z,12.10
2019-03-12T13:58:34.620Z,11.97
2019-03-12T14:04:40.350Z,11.97
2019-03-12T14:10:47.520Z,11.96
2019-03-12T14:16:53.550Z,11.82
2019-03-12T14:22:59.549Z,11.80
2019-03-12T14:29:05.884Z,11.69
2019-03-12T14:35:11.970Z,11.67
2019-03-12T14:41:17.863Z,11.65
2019-03-12T14:47:23.934Z,11.58
2019-03-12T14:53:30.024Z,11.59
2019-03-12T14:59:36.299Z,11.61
2019-03-12T15:05:42.059Z,11.65
2019-03-12T15:11:47.837Z,11.62
2019-03-12T15:17:53.943Z,11.62
2019-03-12T15:24:00.136Z,11.53
2019-03-12T15:30:09.176Z,11.53
2019-03-12T15:36:15.148Z,11.47
2019-03-12T15:42:20.939Z,11.40
2019-03-12T15:48:26.923Z,11.33
2019-03-12T15:54:32.904Z,11.29
2019-03-12T16:00:39.064Z,11.19
2019-03-12T16:06:44.879Z,11.23
2019-03-12T16:12:53.907Z,11.23
2019-03-12T16:19:00.948Z,11.23
2019-03-12T16:25:07.324Z,11.23
2019-03-12T16:31:13.264Z,11.16
2019-03-12T16:37:27.404Z,11.12
2019-03-12T16:43:33.358Z,11.15
2019-03-12T16:49:39.410Z,11.08
2019-03-12T16:55:45.204Z,11.12
2019-03-12T17:01:51.151Z,11.12
2019-03-12T17:07:57.250Z,11.12
2019-03-12T17:14:02.978Z,11.09
2019-03-12T17:20:10.860Z,11.02
2019-03-12T17:26:16.907Z,10.97
2019-03-12T17:32:23.133Z,10.95
2019-03-12T17:38:45.141Z,10.91
2019-03-12T17:44:37.219Z,10.86
2019-03-12T17:50:42.969Z,10.85
2019-03-12T17:56:49.014Z,10.86
2019-03-12T18:02:54.977Z,10.83
2019-03-12T18:09:00.891Z,10.82
2019-03-12T18:15:08.219Z,10.78
2019-03-12T18:21:15.712Z,10.77
2019-03-12T18:27:21.600Z,10.78
2019-03-12T18:33:27.337Z,10.73
2019-03-12T18:39:33.261Z,10.75
2019-03-12T18:45:39.337Z,10.77
2019-03-12T18:51:45.414Z,10.81
2019-03-12T18:57:51.434Z,10.83
2019-03-12T19:03:57.339Z,10.85
2019-03-12T19:10:03.461Z,10.86
2019-03-12T19:16:09.755Z,10.89
2019-03-12T19:35:24.455Z,10.96
2019-03-12T19:41:30.624Z,10.73
2019-03-12T19:47:36.385Z,10.62
2019-03-12T19:53:42.157Z,10.51
2019-03-12T19:59:47.937Z,10.45
2019-03-12T20:05:53.729Z,10.42
2019-03-12T20:13:27.681Z,10.32
2019-03-12T20:20:36.571Z,10.25
2019-03-12T20:27:37.131Z,10.10
2019-03-12T20:34:40.140Z,10.02
2019-03-12T20:41:53.309Z,9.99
2019-03-12T20:48:43.136Z,10.02
2019-03-12T20:55:47.941Z,10.08
2019-03-12T21:02:48.058Z,10.12
2019-03-12T21:10:01.414Z,10.16
2019-03-12T21:16:53.060Z,10.07
2019-03-12T21:24:12.908Z,8.98
2019-03-12T21:30:16.154Z,8.00
2019-03-12T21:36:22.033Z,7.41
2019-03-12T21:42:27.922Z,7.05
2019-03-12T21:48:33.704Z,6.84
2019-03-12T21:54:40.112Z,6.73
2019-03-12T22:00:46.125Z,6.68
2019-03-12T22:06:51.978Z,6.72
2019-03-12T22:12:58.093Z,6.74
2019-03-12T22:19:04.111Z,6.67
2019-03-12T22:25:11.804Z,6.64
2019-03-12T22:31:17.678Z,6.70
2019-03-12T22:37:23.688Z,6.78
2019-03-12T22:43:29.507Z,6.73
2019-03-12T22:49:35.242Z,6.81
2019-03-12T22:55:40.947Z,6.83
2019-03-12T23:01:46.764Z,6.76
2019-03-12T23:07:52.530Z,6.87
2019-03-12T23:13:58.292Z,6.85
2019-03-12T23:20:04.304Z,6.88
2019-03-12T23:26:09.973Z,6.85
2019-03-12T23:32:16.438Z,6.95
2019-03-12T23:38:22.316Z,6.93
2019-03-12T23:44:28.009Z,6.96
2019-03-12T23:50:33.879Z,6.94
2019-03-12T23:56:39.700Z,6.92
